Skip to Main Content

Maryland Weather Station Data

Download Historical Weather Data

SEARCH:
Location Air RH Dwp Precip Type Intensity Visibility Wind Speed Direction Pavement Temperature Date/Time
I-270 AT I-370 65 93 64 None - - Calm N 72 - 72 5/30/2016 2:45:01 AM
I-270 AT MD-109 65 100 65 None - - Calm N 69 - 73 5/30/2016 2:45:00 AM
I-495 AT American Legion Bridge 66 100 66 None - - Calm N 71 - 71 5/30/2016 2:45:00 AM
I-68 AT MD-219 60 80 54 None - - 8 mph SW 62 - 64 5/30/2016 2:45:01 AM
I-68 AT Savage Mt 61 75 54 None - - Calm S 61 - 62 5/30/2016 2:45:01 AM
I-68 AT Sideling Hill 64 92 62 None - - Calm NW 69 - 70 5/30/2016 2:45:00 AM
I-695 AT I-83 66 97 65 None - - Calm N 71 - 72 5/30/2016 2:45:01 AM
I-70 AT Fred-Wash Co. 62 100 62 None - - Calm NE 67 - 70 5/30/2016 2:45:00 AM
I-70 AT I-695 65 100 65 None - - Calm W 69 - 70 5/30/2016 2:45:01 AM
I-70 AT I-81 64 100 64 Rain - - Calm E 70 - 70 5/30/2016 2:45:00 AM
I-70 AT MD-27 64 100 64 None - - Calm N 68 - 68 5/30/2016 2:45:00 AM
I-70 AT MD-32 64 99 64 None - - Calm N 69 - 71 5/30/2016 2:45:01 AM
I-83 AT MD-137 64 100 64 None - - - No Data Available - 5/30/2016 2:45:00 AM
I-95 AT Patuxent River 66 100 66 None - - Calm S 69 - 69 5/30/2016 2:45:00 AM
I-95 AT Tydings Bridge 70 98 70 None - - Calm SW 72 - 72 5/30/2016 2:45:01 AM
I-95/495 AT I-295 74 81 68 None - - Calm N 69 - 72 5/30/2016 2:45:00 AM
I-97 AT MD-100 66 97 66 None - - Calm W 70 - 70 5/30/2016 2:45:01 AM
I-97 AT MD-32 66 98 65 None - - 8 mph N 71 - 71 5/30/2016 2:45:01 AM
MD 231 at Patuxent River 67 100 67 None - - Calm NW 68 - 71 5/30/2016 2:45:04 AM
MD-135 AT Salt Dome 60 75 53 None - - Calm SW 63 - 63 5/30/2016 2:45:01 AM
MD-140 AT MD-97 64 100 64 None - - 4 mph NW 69 - 69 5/30/2016 2:45:01 AM
MD-213 AT Sassafras River 71 100 71 None - - Calm SW 75 - 75 5/30/2016 2:45:00 AM
MD-24 AT Rock St Park 66 100 66 None - - Calm NE 71 - 71 5/30/2016 2:45:00 AM
MD-30 AT PA Line 63 100 63 None - - Calm NW 69 - 69 5/30/2016 2:45:00 AM
MD-301 AT MD-305 71 98 70 Rain - - Calm SW 73 - 74 5/30/2016 2:45:01 AM
MD-33 AT Knapps Narrows Drawbridge 68 100 68 Rain - - Calm NE 74 - 74 5/30/2016 2:45:01 AM
MD-344 at MD-224 66 100 66 None - - Calm E 72 - 72 5/30/2016 2:45:06 AM
MD-4 AT Patuxent River 71 100 71 None - - - No Data Available 71 - 74 5/30/2016 2:45:00 AM
MD-404 AT Choptank River 72 99 72 None - - 7 mph S 74 - 74 5/30/2016 2:45:01 AM
MD-43 AT MD-150 67 100 67 None - - Calm W 73 - 73 5/30/2016 2:45:00 AM
MD-51 AT Oldtown Salt Dome 63 100 63 None - - Calm S 71 - 71 5/30/2016 2:45:01 AM
US-1 AT Baltimore / Harford Co. Line 67 98 66 None - - Calm NE 72 - 73 5/30/2016 2:45:01 AM
US-1 AT Conowingo Dam 71 100 71 None - - Calm E 75 - 75 5/30/2016 2:45:00 AM
US-13 AT US-113 72 96 71 None - - Calm S 76 - 77 5/30/2016 2:45:01 AM
US-13 AT US-50 72 94 70 Rain - - 5 mph S 74 - 75 5/30/2016 2:45:01 AM
US-15 AT MD-140 70 78 63 Rain - - Calm N 67 - 67 5/30/2016 2:45:00 AM
US-301 AT MD-5 66 100 66 None - - Calm NW 70 - 72 5/30/2016 2:45:00 AM
US-301 AT Potomac 71 91 68 None - - Calm E 68 - 72 5/30/2016 2:45:00 AM
US-340 AT MD-180 63 97 62 None - - Calm E 68 - 70 5/30/2016 2:45:01 AM
US-50 AT Choptank 73 100 73 None - - Calm S 73 - 75 5/30/2016 2:45:00 AM
US-50 AT I-95 67 100 67 None - - Calm SW 72 - 106 5/30/2016 2:45:00 AM
US-50 AT MD-2 67 100 67 Rain - - Calm S 70 - 72 5/30/2016 2:45:00 AM
US-50 AT MD-331 74 93 72 None - - 5 mph S 73 - 73 5/30/2016 2:45:01 AM
US-50 AT OC Drawbridge 68 100 68 None - - 4 mph SW 72 - 72 5/30/2016 2:45:01 AM
US-50 AT Table Rock Rd 58 81 52 None - - Calm E 58 - 58 5/30/2016 2:45:00 AM
US-50 Kent Narrow Bridge 68 100 68 Rain - - Calm SW 71 - 71 5/30/2016 2:45:00 AM
WPL Pier 31 67 96 66 Rain - - - W 70 - 70 5/30/2016 2:49:00 AM
Location Air RH Dwp Precip Type Intensity Visibility Wind Speed Direction Pavement Temperature Date/Time